Time;durP1;ratioP1;P1;durP2;ratioP2;P2;SDS_P1;SDS_P2;PMS_P1;PMS_P2;Temp;Humidity;BMP_temperature;BMP_pressure;BME280_temperature;BME280_humidity;BME280_pressure;Samples;Min_cycle;Max_cycle;Signal;HPM_P1;HPM_P2
2024/01/05 00:00:08;;;;;;;4.80;3.43;;;2.30;99.90;;;;;;5001741;28;20296;-66
2024/01/05 00:02:37;;;;;;;3.97;3.23;;;2.30;99.90;;;;;;4984419;28;20233;-66
2024/01/05 00:05:04;;;;;;;4.60;3.20;;;2.30;99.90;;;;;;4996067;28;20198;-66
2024/01/05 00:07:31;;;;;;;5.30;3.73;;;2.30;99.90;;;;;;4996450;28;20206;-66
2024/01/05 00:09:58;;;;;;;4.00;3.10;;;2.20;99.90;;;;;;4986030;28;20225;-66
2024/01/05 00:12:25;;;;;;;4.53;3.33;;;2.30;99.90;;;;;;4966695;28;20215;-66
2024/01/05 00:14:52;;;;;;;6.53;3.80;;;2.20;99.90;;;;;;4998858;28;20205;-66
2024/01/05 00:17:18;;;;;;;5.37;3.80;;;2.30;99.90;;;;;;4989655;28;20210;-67
2024/01/05 00:19:47;;;;;;;6.53;3.70;;;2.20;99.90;;;;;;5004124;28;20198;-66
2024/01/05 00:22:14;;;;;;;5.90;3.73;;;2.20;99.90;;;;;;4996897;28;20205;-66
2024/01/05 00:24:40;;;;;;;5.03;3.53;;;2.10;99.90;;;;;;4988043;28;20340;-66
2024/01/05 00:27:08;;;;;;;5.43;4.23;;;;;;;;;;4997063;28;20198;-66
2024/01/05 00:29:34;;;;;;;4.97;3.87;;;2.20;99.90;;;;;;4968380;28;20245;-66
2024/01/05 00:32:01;;;;;;;7.20;3.90;;;2.10;99.90;;;;;;4995684;28;20206;-66
2024/01/05 00:34:28;;;;;;;6.73;3.90;;;2.10;99.90;;;;;;4988547;28;20224;-66
2024/01/05 00:36:56;;;;;;;4.80;3.87;;;2.10;99.90;;;;;;4997856;28;20671;-66
2024/01/05 00:39:23;;;;;;;4.73;3.37;;;2.10;99.90;;;;;;4988017;28;20208;-66
2024/01/05 00:41:50;;;;;;;7.07;3.77;;;2.20;99.90;;;;;;5001080;28;20214;-66
2024/01/05 00:44:17;;;;;;;6.33;4.13;;;2.20;99.90;;;;;;4958891;28;20735;-66
2024/01/05 00:46:44;;;;;;;6.90;4.13;;;;;;;;;;4999461;28;20202;-66
2024/01/05 00:49:11;;;;;;;6.50;3.90;;;2.00;99.90;;;;;;4987866;28;20957;-66
2024/01/05 00:51:38;;;;;;;4.93;3.73;;;2.10;99.90;;;;;;5001784;28;20210;-66
2024/01/05 00:54:06;;;;;;;6.57;4.10;;;2.10;99.90;;;;;;4990307;28;20847;-66
2024/01/05 00:56:33;;;;;;;5.37;4.03;;;2.20;99.90;;;;;;5002219;28;20725;-66
2024/01/05 00:59:00;;;;;;;7.03;4.43;;;2.20;99.90;;;;;;4978058;28;20207;-66
2024/01/05 01:01:27;;;;;;;5.77;3.60;;;2.20;99.90;;;;;;4972937;28;20217;-66
2024/01/05 01:03:54;;;;;;;5.80;3.90;;;2.20;99.90;;;;;;4993603;28;20343;-66
2024/01/05 01:06:21;;;;;;;7.10;4.30;;;2.40;99.90;;;;;;4989440;28;20198;-66
2024/01/05 01:08:48;;;;;;;5.60;3.40;;;2.10;99.90;;;;;;5000726;28;20294;-66
2024/01/05 01:11:16;;;;;;;5.07;3.90;;;2.10;99.90;;;;;;4980732;28;20222;-66
2024/01/05 01:13:44;;;;;;;7.40;4.00;;;2.20;99.90;;;;;;4997652;28;20203;-66
2024/01/05 01:16:11;;;;;;;9.77;4.57;;;2.20;99.90;;;;;;4970178;28;20221;-66
2024/01/05 01:18:38;;;;;;;6.30;3.80;;;3.20;99.90;;;;;;4986415;28;20675;-66
2024/01/05 01:21:05;;;;;;;9.17;4.80;;;2.20;99.90;;;;;;5001634;28;20208;-66
2024/01/05 01:23:32;;;;;;;7.53;4.10;;;2.20;99.90;;;;;;4998218;28;20577;-66
2024/01/05 01:25:59;;;;;;;6.80;4.23;;;2.20;99.90;;;;;;4984117;28;20198;-66
2024/01/05 01:28:27;;;;;;;6.87;4.80;;;2.20;99.90;;;;;;4995076;28;20676;-66
2024/01/05 01:30:54;;;;;;;10.37;4.63;;;2.20;99.90;;;;;;4966985;28;20782;-66
2024/01/05 01:33:21;;;;;;;8.33;4.40;;;2.30;99.90;;;;;;4989245;28;20195;-66
2024/01/05 01:35:48;;;;;;;6.43;4.67;;;2.30;99.90;;;;;;4992906;28;20302;-66
2024/01/05 01:38:15;;;;;;;9.13;4.87;;;2.30;99.90;;;;;;5002691;28;20200;-66
2024/01/05 01:40:46;;;;;;;8.03;4.63;;;2.20;99.90;;;;;;4988937;28;20209;-66
2024/01/05 01:43:19;;;;;;;6.33;4.67;;;2.20;99.90;;;;;;4994465;28;20226;-66
2024/01/05 01:45:48;;;;;;;6.47;4.20;;;2.20;99.90;;;;;;4973678;28;20209;-67
2024/01/05 01:48:16;;;;;;;7.80;4.40;;;2.20;99.90;;;;;;4995299;28;20205;-66
2024/01/05 01:50:43;;;;;;;8.00;5.30;;;2.20;99.90;;;;;;4986474;28;20739;-66
2024/01/05 01:53:12;;;;;;;10.00;4.73;;;2.20;99.90;;;;;;4997390;28;20328;-66
2024/01/05 01:55:39;;;;;;;10.37;4.90;;;2.20;99.90;;;;;;4992917;28;20208;-67
2024/01/05 01:58:06;;;;;;;8.20;4.30;;;2.20;99.90;;;;;;4984535;28;20738;-66
2024/01/05 02:00:34;;;;;;;7.80;4.93;;;2.20;99.90;;;;;;4997999;28;20193;-66
2024/01/05 02:03:04;;;;;;;6.90;4.20;;;1.90;99.90;;;;;;4966335;28;20494;-66
2024/01/05 02:05:31;;;;;;;6.17;3.83;;;2.30;99.90;;;;;;4985838;28;20202;-66
2024/01/05 02:07:58;;;;;;;8.97;4.33;;;2.30;99.90;;;;;;4992697;28;20324;-66
2024/01/05 02:10:25;;;;;;;7.07;4.60;;;2.30;99.90;;;;;;4996825;28;20253;-66
2024/01/05 02:12:52;;;;;;;8.10;4.43;;;2.20;99.90;;;;;;4979285;28;20237;-66
2024/01/05 02:15:18;;;;;;;10.37;5.07;;;2.20;99.90;;;;;;4998245;28;20202;-66
2024/01/05 02:17:45;;;;;;;7.73;4.67;;;2.20;99.90;;;;;;4963068;28;20205;-66
2024/01/05 02:20:14;;;;;;;9.07;4.57;;;2.30;99.90;;;;;;4987399;28;20694;-66
2024/01/05 02:22:45;;;;;;;9.27;5.30;;;2.30;99.90;;;;;;4995530;28;20209;-66
2024/01/05 02:25:13;;;;;;;9.27;5.07;;;2.20;99.90;;;;;;4995917;28;20201;-66
2024/01/05 02:27:40;;;;;;;8.90;5.23;;;2.20;99.90;;;;;;4990431;28;20675;-66
2024/01/05 02:30:08;;;;;;;9.53;4.63;;;2.20;99.90;;;;;;4985390;28;20431;-66
2024/01/05 02:32:35;;;;;;;7.03;4.60;;;;;;;;;;4963426;28;20222;-67
2024/01/05 02:35:02;;;;;;;9.37;4.47;;;2.20;99.90;;;;;;4995526;28;20202;-66
2024/01/05 02:37:30;;;;;;;8.47;5.60;;;2.20;99.90;;;;;;4988384;28;20230;-66
2024/01/05 02:39:56;;;;;;;11.57;5.80;;;2.10;99.90;;;;;;5000514;28;20427;-66
2024/01/05 02:42:25;;;;;;;7.87;4.57;;;2.10;99.90;;;;;;4984813;28;20226;-66
2024/01/05 02:44:51;;;;;;;8.80;4.63;;;2.20;99.90;;;;;;4982495;28;20206;-66
2024/01/05 02:47:18;;;;;;;8.33;5.10;;;2.20;99.90;;;;;;4995565;28;20202;-66
2024/01/05 02:49:45;;;;;;;7.73;4.70;;;2.10;99.90;;;;;;4958580;28;20210;-66
2024/01/05 02:52:12;;;;;;;8.73;4.87;;;2.10;99.90;;;;;;4981112;28;20237;-66
2024/01/05 02:54:39;;;;;;;8.67;5.30;;;1.30;99.90;;;;;;4994397;28;20195;-66
2024/01/05 02:57:06;;;;;;;9.33;5.63;;;2.20;99.90;;;;;;4994787;28;20206;-66
2024/01/05 02:59:34;;;;;;;9.73;5.33;;;2.20;99.90;;;;;;4978948;28;20252;-66
2024/01/05 03:02:02;;;;;;;8.47;5.40;;;2.10;99.90;;;;;;4999910;28;20252;-66
2024/01/05 03:04:28;;;;;;;9.13;5.63;;;1.50;99.90;;;;;;4972621;28;20220;-66
2024/01/05 03:06:55;;;;;;;8.93;5.63;;;2.20;99.90;;;;;;4994841;28;20204;-66
2024/01/05 03:09:22;;;;;;;11.73;4.90;;;2.10;99.90;;;;;;4994735;28;20778;-66
2024/01/05 03:11:49;;;;;;;8.93;5.23;;;2.20;99.90;;;;;;4994634;28;20718;-66
2024/01/05 03:14:16;;;;;;;9.80;6.30;;;1.70;99.90;;;;;;4990547;28;20206;-66
2024/01/05 03:16:44;;;;;;;9.37;5.17;;;2.20;99.90;;;;;;4994329;28;20206;-66
2024/01/05 03:19:11;;;;;;;8.83;5.43;;;;;;;;;;4965474;28;20210;-66
2024/01/05 03:21:38;;;;;;;9.93;5.93;;;2.00;99.90;;;;;;5002362;28;20271;-66
2024/01/05 03:24:06;;;;;;;10.30;5.10;;;2.00;99.90;;;;;;4980381;28;20420;-66
2024/01/05 03:26:33;;;;;;;9.43;5.83;;;2.10;99.90;;;;;;5002566;28;20197;-66
2024/01/05 03:29:01;;;;;;;8.67;5.83;;;2.20;99.90;;;;;;4987257;28;20204;-66
2024/01/05 03:31:28;;;;;;;13.83;5.77;;;2.10;99.90;;;;;;4992342;28;20217;-66
2024/01/05 03:33:56;;;;;;;9.93;5.27;;;2.10;99.90;;;;;;5001336;28;20202;-66
2024/01/05 03:36:23;;;;;;;9.73;6.30;;;1.80;99.90;;;;;;4967066;28;20415;-66
2024/01/05 03:38:50;;;;;;;9.53;5.37;;;2.10;99.90;;;;;;4993205;28;20205;-66
2024/01/05 03:41:17;;;;;;;8.37;5.10;;;2.10;99.90;;;;;;4995584;28;20263;-66
2024/01/05 03:43:44;;;;;;;11.37;5.67;;;2.10;99.90;;;;;;5000567;28;20207;-66
2024/01/05 03:46:11;;;;;;;10.40;6.23;;;2.10;99.90;;;;;;4983781;28;21120;-66
2024/01/05 03:48:38;;;;;;;10.37;6.10;;;2.10;99.90;;;;;;4999439;28;20206;-66
2024/01/05 03:51:07;;;;;;;9.43;5.87;;;2.10;99.90;;;;;;4965126;28;20240;-66
2024/01/05 03:53:34;;;;;;;9.57;5.63;;;2.10;99.90;;;;;;4999885;28;20203;-66
2024/01/05 03:56:01;;;;;;;7.57;5.63;;;2.10;99.90;;;;;;4986901;28;20205;-66
2024/01/05 03:58:28;;;;;;;10.17;5.87;;;2.00;99.90;;;;;;4994562;28;20303;-67
2024/01/05 04:00:55;;;;;;;8.83;5.63;;;;;;;;;;4986810;28;20216;-66
2024/01/05 04:03:23;;;;;;;7.57;5.73;;;2.20;99.90;;;;;;4998120;28;20236;-66
2024/01/05 04:05:50;;;;;;;8.80;5.10;;;;;;;;;;4997783;28;20246;-66
2024/01/05 04:08:18;;;;;;;10.23;5.07;;;2.00;99.90;;;;;;4957029;28;20494;-67
2024/01/05 04:10:45;;;;;;;11.87;5.77;;;2.10;99.90;;;;;;4986356;28;20228;-66
2024/01/05 04:13:12;;;;;;;8.37;5.47;;;2.20;99.90;;;;;;4993179;28;20206;-66
2024/01/05 04:15:40;;;;;;;8.70;5.40;;;2.10;99.90;;;;;;4991079;28;20214;-66
2024/01/05 04:18:07;;;;;;;7.97;4.83;;;2.10;99.90;;;;;;4993906;28;20727;-66
2024/01/05 04:20:34;;;;;;;8.93;5.67;;;2.20;99.90;;;;;;5000438;28;20767;-66
2024/01/05 04:23:01;;;;;;;9.40;5.13;;;1.20;99.90;;;;;;4962368;28;20213;-66
2024/01/05 04:25:30;;;;;;;8.77;4.97;;;2.10;99.90;;;;;;4985226;28;20735;-66
2024/01/05 04:27:57;;;;;;;11.93;5.30;;;2.10;99.90;;;;;;5000967;28;20214;-66
2024/01/05 04:30:24;;;;;;;7.87;4.30;;;2.20;99.90;;;;;;4987031;28;21373;-66
2024/01/05 04:32:52;;;;;;;6.90;5.00;;;2.10;99.90;;;;;;5000528;28;20209;-66
2024/01/05 04:35:19;;;;;;;7.40;4.50;;;2.20;99.90;;;;;;4984814;28;20417;-66
2024/01/05 04:37:46;;;;;;;9.03;5.00;;;2.10;99.90;;;;;;4968063;28;20315;-66
2024/01/05 04:40:13;;;;;;;8.20;5.07;;;1.30;99.90;;;;;;4985524;28;20205;-67
2024/01/05 04:42:41;;;;;;;9.47;4.77;;;2.10;99.90;;;;;;4985985;28;20237;-66
2024/01/05 04:45:10;;;;;;;7.27;4.97;;;2.20;99.90;;;;;;4982028;28;20206;-67
2024/01/05 04:47:37;;;;;;;7.70;5.00;;;2.20;99.90;;;;;;5001225;28;20200;-67
2024/01/05 04:50:04;;;;;;;7.07;4.63;;;2.30;99.90;;;;;;4995106;28;20212;-66
2024/01/05 04:52:34;;;;;;;6.73;4.50;;;2.10;99.90;;;;;;4998038;28;20885;-66
2024/01/05 04:55:01;;;;;;;6.37;4.40;;;;;;;;;;4940980;28;20236;-66
2024/01/05 04:57:28;;;;;;;7.70;4.87;;;2.20;99.90;;;;;;4984138;28;20405;-66
2024/01/05 04:59:56;;;;;;;6.13;4.60;;;2.10;99.90;;;;;;4975511;28;20212;-67
2024/01/05 05:02:23;;;;;;;6.83;4.17;;;2.10;99.90;;;;;;4978552;28;20248;-66
2024/01/05 05:04:50;;;;;;;7.73;4.93;;;2.10;99.90;;;;;;4995810;28;20610;-66
2024/01/05 05:07:17;;;;;;;7.30;5.07;;;2.10;99.90;;;;;;4988365;28;20352;-66
2024/01/05 05:09:44;;;;;;;6.70;4.87;;;2.10;99.90;;;;;;4965460;28;20212;-66
2024/01/05 05:12:11;;;;;;;7.07;4.03;;;2.10;99.90;;;;;;4978019;28;20328;-67
2024/01/05 05:14:39;;;;;;;8.00;4.97;;;2.80;99.90;;;;;;5000112;28;20209;-66
2024/01/05 05:17:08;;;;;;;6.00;4.27;;;1.60;99.90;;;;;;4984577;28;20206;-66
2024/01/05 05:19:35;;;;;;;6.13;3.83;;;2.20;99.90;;;;;;5002465;28;20203;-66
2024/01/05 05:22:01;;;;;;;6.87;4.63;;;2.10;99.90;;;;;;4987338;28;20212;-66
2024/01/05 05:24:28;;;;;;;6.13;4.13;;;2.10;99.90;;;;;;4966178;28;20215;-66
2024/01/05 05:26:55;;;;;;;5.83;3.67;;;2.20;99.90;;;;;;4980209;28;20295;-66
2024/01/05 05:29:23;;;;;;;10.40;4.43;;;2.00;99.90;;;;;;4993401;28;20213;-66
2024/01/05 05:31:50;;;;;;;8.33;4.33;;;2.10;99.90;;;;;;4998758;28;20229;-66
2024/01/05 05:34:18;;;;;;;5.33;3.73;;;2.10;99.90;;;;;;4987113;28;20209;-66
2024/01/05 05:36:45;;;;;;;6.17;4.10;;;2.00;99.90;;;;;;4971474;28;20209;-66
2024/01/05 05:39:12;;;;;;;6.87;4.67;;;2.00;99.90;;;;;;4983817;28;20210;-66
2024/01/05 05:41:39;;;;;;;7.27;4.40;;;2.90;99.90;;;;;;4968425;28;20641;-66
2024/01/05 05:44:05;;;;;;;8.10;4.87;;;2.10;99.90;;;;;;4982904;28;20593;-66
2024/01/05 05:46:32;;;;;;;7.87;4.37;;;2.10;99.90;;;;;;4996620;28;20201;-66
2024/01/05 05:48:59;;;;;;;8.57;4.33;;;2.10;99.90;;;;;;4986613;28;20303;-66
2024/01/05 05:51:27;;;;;;;7.77;4.30;;;2.10;99.90;;;;;;4991610;28;20237;-67
2024/01/05 05:53:55;;;;;;;8.07;4.40;;;2.10;99.90;;;;;;4986590;28;21052;-66
2024/01/05 05:56:22;;;;;;;9.93;4.47;;;2.10;99.90;;;;;;4954748;28;20213;-66
2024/01/05 05:58:49;;;;;;;7.83;4.70;;;2.60;99.90;;;;;;4981663;28;20213;-66
2024/01/05 06:01:16;;;;;;;7.87;3.80;;;1.70;99.90;;;;;;4984636;28;20593;-65
2024/01/05 06:03:43;;;;;;;6.63;4.27;;;2.20;99.90;;;;;;4986310;28;20989;-66
2024/01/05 06:06:18;;;;;;;6.97;4.27;;;2.00;99.90;;;;;;4989224;28;20212;-66
2024/01/05 06:08:46;;;;;;;6.90;4.30;;;2.10;99.90;;;;;;4991762;28;20275;-66
2024/01/05 06:11:14;;;;;;;6.40;4.00;;;;;;;;;;4976793;28;20276;-66
2024/01/05 06:13:41;;;;;;;6.20;4.33;;;2.10;99.90;;;;;;4982492;28;20446;-66
2024/01/05 06:16:08;;;;;;;6.47;3.90;;;2.00;99.90;;;;;;4980693;28;21431;-66
2024/01/05 06:18:35;;;;;;;8.77;4.43;;;2.00;99.90;;;;;;4998859;28;20411;-66
2024/01/05 06:21:02;;;;;;;5.70;3.90;;;2.10;99.90;;;;;;4991110;28;20209;-66
2024/01/05 06:23:29;;;;;;;5.30;3.70;;;2.00;99.90;;;;;;4991159;28;21572;-66
2024/01/05 06:25:58;;;;;;;5.50;3.53;;;2.10;99.90;;;;;;4990989;28;20225;-65
2024/01/05 06:28:24;;;;;;;7.33;3.27;;;3.10;99.90;;;;;;4960641;28;20221;-66
2024/01/05 06:30:51;;;;;;;5.40;4.13;;;2.10;99.90;;;;;;4986737;28;20741;-67
2024/01/05 06:33:18;;;;;;;6.50;3.73;;;2.20;99.90;;;;;;4986202;28;20247;-66
2024/01/05 06:35:45;;;;;;;5.97;4.00;;;2.10;99.90;;;;;;4986903;28;20238;-65
2024/01/05 06:38:12;;;;;;;7.50;3.77;;;2.10;99.90;;;;;;4988127;28;20210;-66
2024/01/05 06:40:39;;;;;;;5.57;3.80;;;2.20;99.90;;;;;;4990412;28;21439;-66
2024/01/05 06:43:07;;;;;;;5.73;3.80;;;1.80;99.90;;;;;;4954383;28;22741;-66
2024/01/05 06:45:34;;;;;;;6.50;3.60;;;2.10;99.90;;;;;;4985376;28;20235;-65
2024/01/05 06:48:01;;;;;;;4.17;3.13;;;2.40;99.90;;;;;;4990405;28;20229;-65
2024/01/05 06:50:28;;;;;;;7.07;4.10;;;2.70;99.90;;;;;;4991982;28;20235;-66
2024/01/05 06:52:55;;;;;;;7.90;3.73;;;2.50;99.90;;;;;;4994683;28;20410;-66
2024/01/05 06:55:22;;;;;;;5.37;3.43;;;2.30;99.90;;;;;;4996676;28;20212;-66
2024/01/05 06:57:49;;;;;;;6.10;3.33;;;2.20;99.90;;;;;;4975066;28;20201;-66
2024/01/05 07:00:18;;;;;;;5.50;3.40;;;2.10;99.90;;;;;;4971134;28;20327;-66
2024/01/05 07:02:45;;;;;;;6.70;3.63;;;2.20;99.90;;;;;;4983621;28;20237;-66
2024/01/05 07:05:11;;;;;;;6.33;3.47;;;2.30;99.90;;;;;;4992251;28;20221;-66
2024/01/05 07:07:41;;;;;;;6.17;3.20;;;2.20;99.90;;;;;;5000226;28;20205;-66
2024/01/05 07:10:08;;;;;;;5.30;3.33;;;2.30;99.90;;;;;;4998496;28;20204;-66
2024/01/05 07:12:35;;;;;;;4.77;3.07;;;2.30;99.90;;;;;;4993271;28;20232;-66
2024/01/05 07:15:02;;;;;;;5.73;3.20;;;2.30;99.90;;;;;;4961043;28;20518;-66
2024/01/05 07:17:30;;;;;;;4.30;3.40;;;2.30;99.90;;;;;;4979182;28;20213;-66
2024/01/05 07:19:57;;;;;;;6.23;3.20;;;2.50;99.90;;;;;;4987287;28;20201;-66
2024/01/05 07:22:25;;;;;;;4.40;3.40;;;2.20;99.90;;;;;;4986586;28;20209;-66
2024/01/05 07:24:51;;;;;;;4.73;3.43;;;2.10;99.90;;;;;;4994665;28;20426;-66
2024/01/05 07:27:18;;;;;;;4.47;3.03;;;2.20;99.90;;;;;;4988706;28;20206;-66
2024/01/05 07:29:45;;;;;;;3.77;3.00;;;2.30;99.90;;;;;;4961663;28;20680;-66
2024/01/05 07:32:12;;;;;;;4.90;2.80;;;2.40;99.90;;;;;;4991412;28;20726;-66
2024/01/05 07:34:40;;;;;;;5.60;3.57;;;2.60;99.90;;;;;;4988415;28;20214;-66
2024/01/05 07:37:07;;;;;;;5.03;3.40;;;2.40;99.90;;;;;;4984183;28;20708;-66
2024/01/05 07:39:34;;;;;;;3.70;2.57;;;2.40;99.90;;;;;;4987019;28;20653;-66
2024/01/05 07:42:02;;;;;;;3.63;2.80;;;2.30;99.90;;;;;;4978915;28;21762;-66
2024/01/05 07:44:32;;;;;;;4.17;2.80;;;2.30;99.90;;;;;;4935076;28;20616;-66
2024/01/05 07:46:59;;;;;;;4.53;2.70;;;2.30;99.90;;;;;;4988762;28;20203;-66
2024/01/05 07:49:25;;;;;;;4.77;2.80;;;2.20;99.90;;;;;;4987122;28;20205;-66
2024/01/05 07:51:54;;;;;;;4.10;2.93;;;2.30;99.90;;;;;;4989003;28;20226;-66
2024/01/05 07:54:21;;;;;;;4.93;3.10;;;2.30;99.90;;;;;;4994693;28;20617;-66
2024/01/05 07:56:48;;;;;;;6.83;3.00;;;2.30;99.90;;;;;;4999530;28;20200;-66
2024/01/05 07:59:16;;;;;;;3.53;2.70;;;2.20;99.90;;;;;;5003043;28;20675;-66
2024/01/05 08:01:43;;;;;;;5.70;2.87;;;2.30;99.90;;;;;;4967271;28;20240;-65
2024/01/05 08:04:10;;;;;;;3.37;2.47;;;2.60;99.90;;;;;;4987235;28;20213;-66
2024/01/05 08:06:37;;;;;;;3.43;2.90;;;3.20;99.90;;;;;;4989441;28;20231;-66
2024/01/05 08:09:05;;;;;;;3.40;2.63;;;2.30;99.90;;;;;;4987014;28;20206;-66
2024/01/05 08:11:32;;;;;;;3.43;2.60;;;2.30;99.90;;;;;;4998692;28;20253;-66
2024/01/05 08:13:59;;;;;;;4.50;2.73;;;2.30;99.90;;;;;;4999176;28;20260;-66
2024/01/05 08:16:26;;;;;;;4.60;2.70;;;2.30;99.90;;;;;;4964998;28;20666;-67
2024/01/05 08:18:53;;;;;;;5.07;2.87;;;2.40;99.90;;;;;;4981981;28;20296;-66
2024/01/05 08:21:19;;;;;;;3.27;2.57;;;1.40;99.90;;;;;;4991864;28;20206;-66
2024/01/05 08:23:46;;;;;;;3.03;2.73;;;2.30;99.90;;;;;;4982315;28;20212;-66
2024/01/05 08:26:19;;;;;;;3.23;2.47;;;2.40;99.90;;;;;;4997547;28;20202;-67
2024/01/05 08:28:46;;;;;;;5.27;2.73;;;1.80;99.90;;;;;;5005681;28;20782;-67
2024/01/05 08:31:13;;;;;;;2.47;2.10;;;2.50;99.90;;;;;;5001101;28;20268;-67
2024/01/05 08:33:40;;;;;;;3.57;2.60;;;3.20;99.90;;;;;;4956189;28;20237;-67
2024/01/05 08:36:07;;;;;;;3.17;2.33;;;2.40;99.90;;;;;;4986658;28;20210;-67
2024/01/05 08:38:34;;;;;;;2.73;2.13;;;2.40;99.90;;;;;;4994493;28;20694;-66
2024/01/05 08:41:02;;;;;;;3.53;2.30;;;2.40;99.90;;;;;;4994115;28;20312;-67
2024/01/05 08:43:30;;;;;;;3.17;2.07;;;2.40;99.90;;;;;;5001992;28;20296;-66
2024/01/05 08:45:57;;;;;;;3.40;2.30;;;3.80;99.90;;;;;;4999342;28;20325;-67
2024/01/05 08:48:24;;;;;;;2.87;1.90;;;2.40;99.90;;;;;;4969846;28;20285;-66
2024/01/05 08:50:51;;;;;;;2.63;2.03;;;2.50;99.90;;;;;;4989382;28;20228;-66
2024/01/05 08:53:21;;;;;;;3.57;2.30;;;2.30;99.90;;;;;;4986531;28;20360;-67
2024/01/05 08:55:47;;;;;;;3.10;2.37;;;2.40;99.90;;;;;;4999656;28;20240;-66
2024/01/05 08:58:14;;;;;;;2.93;2.47;;;2.50;99.90;;;;;;4999108;28;20213;-66
2024/01/05 09:00:42;;;;;;;2.80;2.13;;;2.70;99.90;;;;;;5000278;28;20235;-66
2024/01/05 09:03:09;;;;;;;3.77;2.43;;;2.50;99.90;;;;;;4957667;28;20742;-66
2024/01/05 09:05:36;;;;;;;2.70;2.30;;;2.70;99.90;;;;;;4995692;28;20689;-66
2024/01/05 09:08:03;;;;;;;4.10;2.40;;;2.20;99.90;;;;;;4987452;28;20225;-66
2024/01/05 09:10:32;;;;;;;3.23;2.90;;;2.40;99.90;;;;;;4986277;28;20207;-66
2024/01/05 09:12:59;;;;;;;3.43;2.73;;;2.40;99.90;;;;;;4993825;28;20227;-66
2024/01/05 09:15:26;;;;;;;2.93;2.27;;;2.50;99.90;;;;;;4994700;28;20202;-66
2024/01/05 09:17:55;;;;;;;5.10;2.50;;;2.50;99.90;;;;;;4993388;28;20238;-66
2024/01/05 09:20:22;;;;;;;4.43;2.83;;;2.50;99.90;;;;;;4956609;28;20217;-66
2024/01/05 09:22:48;;;;;;;2.23;1.97;;;2.90;99.90;;;;;;4969248;28;20391;-67
2024/01/05 09:25:15;;;;;;;3.00;2.27;;;2.50;99.90;;;;;;4983373;28;20986;-67
2024/01/05 09:27:42;;;;;;;2.33;2.10;;;2.40;99.90;;;;;;4993523;28;20892;-66
2024/01/05 09:30:09;;;;;;;3.93;2.50;;;2.40;99.90;;;;;;4988384;28;20955;-66
2024/01/05 09:32:36;;;;;;;2.93;2.03;;;2.50;99.90;;;;;;4996748;28;20225;-66
2024/01/05 09:35:08;;;;;;;3.63;2.30;;;2.60;99.90;;;;;;4954690;28;20509;-66
2024/01/05 09:37:35;;;;;;;3.40;2.30;;;2.80;99.90;;;;;;4986028;28;20216;-66
2024/01/05 09:40:02;;;;;;;3.00;2.00;;;2.60;99.90;;;;;;4980156;28;20474;-67
2024/01/05 09:42:29;;;;;;;2.50;2.10;;;2.40;99.90;;;;;;4994875;28;21591;-66
2024/01/05 09:44:56;;;;;;;3.83;2.20;;;2.40;99.90;;;;;;4984320;28;20205;-67
2024/01/05 09:47:23;;;;;;;2.47;2.00;;;2.30;99.90;;;;;;4997803;28;20202;-66
2024/01/05 09:49:51;;;;;;;2.33;1.77;;;2.50;99.90;;;;;;4960433;28;21031;-67
2024/01/05 09:52:21;;;;;;;2.37;1.90;;;2.50;99.90;;;;;;4995848;28;20202;-66
2024/01/05 09:54:49;;;;;;;2.30;1.90;;;2.50;99.90;;;;;;4982830;28;20217;-66
2024/01/05 09:57:17;;;;;;;3.40;2.30;;;2.90;99.90;;;;;;4984117;28;21480;-66
2024/01/05 09:59:46;;;;;;;2.80;2.37;;;2.50;99.90;;;;;;4988791;28;20295;-67
2024/01/05 10:02:17;;;;;;;2.77;2.20;;;2.60;99.90;;;;;;4991970;28;20237;-66
2024/01/05 10:04:45;;;;;;;2.73;2.10;;;2.50;99.90;;;;;;4958893;28;20225;-66
2024/01/05 10:07:12;;;;;;;3.73;1.87;;;2.00;99.90;;;;;;4981868;28;20225;-66
2024/01/05 10:09:51;;;;;;;2.27;2.07;;;2.50;99.90;;;;;;4971685;28;20675;-67
2024/01/05 10:12:18;;;;;;;3.47;2.40;;;2.50;99.90;;;;;;4975557;28;20741;-66
2024/01/05 10:14:46;;;;;;;2.10;1.87;;;2.50;99.90;;;;;;4987567;28;20220;-66
2024/01/05 10:17:15;;;;;;;2.70;2.00;;;2.50;99.90;;;;;;4994954;28;20200;-66
2024/01/05 10:19:42;;;;;;;2.30;1.87;;;2.50;99.90;;;;;;4955243;28;21168;-66
2024/01/05 10:22:11;;;;;;;2.97;2.30;;;2.60;99.90;;;;;;4956610;28;20248;-66
2024/01/05 10:24:38;;;;;;;3.03;2.37;;;2.80;99.90;;;;;;4977709;28;20245;-66
2024/01/05 10:27:08;;;;;;;2.93;2.10;;;2.60;99.90;;;;;;4989432;28;20221;-66
2024/01/05 10:29:37;;;;;;;1.87;1.67;;;2.60;99.90;;;;;;4977674;28;20348;-66
2024/01/05 10:32:12;;;;;;;3.43;2.37;;;2.70;99.90;;;;;;4985277;28;20658;-66
2024/01/05 10:34:40;;;;;;;3.40;2.40;;;2.60;99.90;;;;;;4976582;28;20237;-66
2024/01/05 10:37:07;;;;;;;4.10;2.70;;;2.60;99.90;;;;;;4956448;28;20203;-67
2024/01/05 10:39:35;;;;;;;2.37;2.17;;;2.70;99.90;;;;;;4981684;28;20469;-66
2024/01/05 10:42:22;;;;;;;3.30;2.43;;;2.70;99.90;;;;;;4984800;28;20434;-67
2024/01/05 10:44:51;;;;;;;3.83;2.40;;;2.70;99.90;;;;;;4980745;28;20483;-66
2024/01/05 10:47:19;;;;;;;3.13;2.60;;;2.70;99.90;;;;;;4981868;28;20900;-66
2024/01/05 10:49:49;;;;;;;2.37;2.17;;;2.80;99.90;;;;;;4977399;28;20486;-66
2024/01/05 10:52:17;;;;;;;4.23;2.57;;;2.80;99.90;;;;;;4954995;28;20214;-66
2024/01/05 10:54:46;;;;;;;4.80;2.50;;;2.70;99.90;;;;;;4966296;28;20260;-66
2024/01/05 10:57:14;;;;;;;2.90;2.47;;;2.80;99.90;;;;;;4980716;28;20205;-66
2024/01/05 10:59:47;;;;;;;3.87;2.73;;;2.50;99.90;;;;;;4963908;28;20783;-66
2024/01/05 11:02:21;;;;;;;4.87;3.10;;;2.80;99.90;;;;;;4988011;28;20530;-66
2024/01/05 11:04:54;;;;;;;6.67;3.00;;;2.70;99.90;;;;;;4979478;28;20236;-66
2024/01/05 11:07:23;;;;;;;3.80;2.40;;;2.70;99.90;;;;;;4972491;28;20216;-66
2024/01/05 11:09:59;;;;;;;6.77;2.70;;;2.80;99.90;;;;;;4939999;28;20237;-66
2024/01/05 11:12:41;;;;;;;4.83;2.70;;;2.90;99.90;;;;;;4976212;28;20202;-66
2024/01/05 11:15:30;;;;;;;4.23;3.10;;;2.90;99.90;;;;;;4983495;28;20201;-66
2024/01/05 11:18:24;;;;;;;4.47;2.40;;;2.80;99.90;;;;;;5001304;28;20785;-66
2024/01/05 11:21:08;;;;;;;4.23;2.73;;;2.90;99.90;;;;;;4989379;28;20205;-66
2024/01/05 11:23:36;;;;;;;5.43;2.27;;;2.90;99.90;;;;;;4958767;28;20236;-66
2024/01/05 11:26:03;;;;;;;4.70;3.07;;;2.90;99.90;;;;;;5003056;28;20220;-66
2024/01/05 11:28:35;;;;;;;4.17;2.90;;;2.90;99.90;;;;;;4987536;28;20289;-66
2024/01/05 11:31:03;;;;;;;9.23;3.33;;;2.90;99.90;;;;;;4976936;28;20218;-66
2024/01/05 11:33:43;;;;;;;8.63;3.67;;;2.90;99.90;;;;;;4993184;28;20308;-66
2024/01/05 11:36:10;;;;;;;4.50;2.60;;;2.80;99.90;;;;;;4991735;28;20198;-66
2024/01/05 11:38:43;;;;;;;5.57;2.83;;;2.80;99.90;;;;;;4965410;28;20421;-66
2024/01/05 11:41:18;;;;;;;3.53;2.60;;;2.80;99.90;;;;;;4999303;28;20210;-66
2024/01/05 11:43:44;;;;;;;3.40;2.80;;;2.80;99.90;;;;;;4980690;28;20217;-66
2024/01/05 11:46:13;;;;;;;7.47;3.57;;;2.90;99.90;;;;;;4979395;28;20723;-66
2024/01/05 11:48:52;;;;;;;3.90;2.70;;;;;;;;;;4997124;28;20208;-66
2024/01/05 11:51:18;;;;;;;4.73;2.30;;;2.70;99.90;;;;;;4992502;28;20215;-67
2024/01/05 11:53:46;;;;;;;3.57;2.93;;;2.90;99.90;;;;;;4948809;28;20260;-66
2024/01/05 11:56:17;;;;;;;8.77;3.93;;;2.90;99.90;;;;;;4991728;28;20861;-66
2024/01/05 11:58:46;;;;;;;11.30;5.40;;;2.90;99.90;;;;;;4967396;28;20214;-66
2024/01/05 12:01:16;;;;;;;8.47;4.00;;;2.90;99.90;;;;;;4987065;28;20906;-66
2024/01/05 12:03:43;;;;;;;11.83;4.30;;;2.90;99.90;;;;;;4986485;28;20198;-66
2024/01/05 12:06:10;;;;;;;5.17;3.37;;;2.90;99.90;;;;;;4984590;28;20462;-66
2024/01/05 12:08:38;;;;;;;3.23;2.60;;;1.80;99.90;;;;;;4975934;28;20209;-66
2024/01/05 12:11:08;;;;;;;3.07;2.50;;;2.80;99.90;;;;;;4948022;28;20487;-66
2024/01/05 12:13:36;;;;;;;3.23;2.47;;;2.90;99.90;;;;;;4967439;28;20313;-66
2024/01/05 12:16:05;;;;;;;2.60;2.40;;;3.00;99.90;;;;;;4960115;28;20207;-66
2024/01/05 12:18:34;;;;;;;2.83;2.23;;;2.80;99.90;;;;;;4946774;28;20805;-66
2024/01/05 12:21:02;;;;;;;3.70;2.57;;;2.80;99.90;;;;;;4979734;28;20213;-66
2024/01/05 12:23:31;;;;;;;3.23;2.57;;;2.90;99.90;;;;;;4969717;28;20213;-66
2024/01/05 12:26:00;;;;;;;7.20;3.93;;;2.80;99.90;;;;;;4957983;28;20214;-67
2024/01/05 12:28:29;;;;;;;16.20;5.57;;;0.40;99.90;;;;;;4974470;28;20401;-66
2024/01/05 12:30:57;;;;;;;6.47;3.37;;;2.90;99.90;;;;;;4990177;28;20228;-66
2024/01/05 12:33:24;;;;;;;8.83;3.97;;;3.10;99.90;;;;;;4971902;28;20225;-66
2024/01/05 12:35:53;;;;;;;4.40;3.00;;;2.70;99.90;;;;;;4968843;28;20202;-66
2024/01/05 12:38:24;;;;;;;2.67;2.13;;;2.60;99.90;;;;;;4984394;28;20207;-66
2024/01/05 12:40:52;;;;;;;3.80;2.63;;;2.40;99.90;;;;;;4960134;28;20229;-66
2024/01/05 12:43:19;;;;;;;2.73;2.30;;;2.80;99.90;;;;;;4985237;28;20212;-66
2024/01/05 12:45:50;;;;;;;2.83;2.23;;;2.70;99.90;;;;;;4996008;28;20189;-66
2024/01/05 12:48:17;;;;;;;2.90;2.60;;;2.70;99.90;;;;;;4970207;28;20255;-67
2024/01/05 12:50:45;;;;;;;3.20;2.60;;;2.70;99.90;;;;;;4987985;28;20301;-66
2024/01/05 12:53:21;;;;;;;3.37;1.90;;;2.00;99.90;;;;;;4974478;28;20226;-66
2024/01/05 12:55:48;;;;;;;3.17;2.40;;;2.80;99.90;;;;;;4957540;28;20695;-66
2024/01/05 12:58:15;;;;;;;3.67;2.20;;;3.00;99.90;;;;;;4983805;28;20929;-66
2024/01/05 13:00:43;;;;;;;2.80;1.90;;;2.60;99.90;;;;;;4992703;28;21883;-66
2024/01/05 13:03:17;;;;;;;5.53;2.80;;;2.70;99.90;;;;;;4983888;28;20721;-66